createdAt,value
2022-09-22T00:01:31.453Z,6.97
2022-09-22T00:04:03.346Z,6.90
2022-09-22T00:06:38.724Z,7.50
2022-09-22T00:09:09.773Z,7.20
2022-09-22T00:11:42.370Z,6.80
2022-09-22T00:14:13.005Z,7.20
2022-09-22T00:16:44.921Z,7.43
2022-09-22T00:19:15.935Z,6.93
2022-09-22T00:21:45.527Z,6.17
2022-09-22T00:24:13.192Z,6.87
2022-09-22T00:26:40.635Z,6.97
2022-09-22T00:29:09.759Z,7.43
2022-09-22T00:31:38.955Z,6.90
2022-09-22T00:34:07.827Z,7.50
2022-09-22T00:36:35.196Z,6.63
2022-09-22T00:39:04.045Z,6.37
2022-09-22T00:41:36.282Z,6.47
2022-09-22T00:44:38.509Z,7.80
2022-09-22T00:47:31.547Z,7.97
2022-09-22T00:50:10.152Z,7.30
2022-09-22T00:52:43.403Z,7.37
2022-09-22T00:55:18.760Z,7.13
2022-09-22T00:57:47.572Z,7.40
2022-09-22T01:00:15.918Z,6.87
2022-09-22T01:02:48.410Z,6.53
2022-09-22T01:05:16.430Z,6.97
2022-09-22T01:07:44.437Z,7.27
2022-09-22T01:10:13.231Z,7.67
2022-09-22T01:12:59.279Z,7.17
2022-09-22T01:15:38.021Z,6.90
2022-09-22T01:18:20.831Z,7.37
2022-09-22T01:21:20.376Z,7.27
2022-09-22T01:24:28.951Z,6.17
2022-09-22T01:27:49.645Z,5.90
2022-09-22T01:30:24.901Z,6.20
2022-09-22T01:33:22.828Z,6.23
2022-09-22T01:36:06.799Z,7.23
2022-09-22T01:38:42.802Z,6.67
2022-09-22T01:41:19.223Z,6.60
2022-09-22T01:43:54.364Z,6.90
2022-09-22T01:46:31.094Z,6.20
2022-09-22T01:49:07.593Z,6.70
2022-09-22T01:51:43.013Z,6.20
2022-09-22T01:54:18.161Z,6.77
2022-09-22T01:56:54.794Z,6.33
2022-09-22T01:59:28.433Z,6.33
2022-09-22T02:02:03.556Z,6.43
2022-09-22T02:04:38.599Z,6.50
2022-09-22T02:07:11.268Z,6.50
2022-09-22T02:09:42.254Z,6.77
2022-09-22T02:12:09.715Z,6.33
2022-09-22T02:14:37.072Z,6.60
2022-09-22T02:17:05.820Z,6.17
2022-09-22T02:19:37.786Z,6.20
2022-09-22T02:22:07.009Z,5.90
2022-09-22T02:24:38.110Z,6.03
2022-09-22T02:27:10.685Z,6.77
2022-09-22T02:29:42.767Z,6.30
2022-09-22T02:32:16.205Z,6.73
2022-09-22T02:34:45.751Z,6.43
2022-09-22T02:37:26.010Z,6.17
2022-09-22T02:40:07.221Z,5.40
2022-09-22T02:42:42.868Z,5.13
2022-09-22T02:45:17.210Z,5.40
2022-09-22T02:47:52.485Z,3.73
2022-09-22T02:50:25.420Z,4.20
2022-09-22T02:52:58.902Z,4.40
2022-09-22T02:55:26.156Z,4.03
2022-09-22T02:57:54.431Z,4.20
2022-09-22T03:00:22.709Z,3.63
2022-09-22T03:02:51.324Z,4.60
2022-09-22T03:05:18.755Z,4.43
2022-09-22T03:07:45.993Z,4.33
2022-09-22T03:10:13.305Z,4.40
2022-09-22T03:13:09.120Z,4.07
2022-09-22T03:15:31.444Z,4.70
2022-09-22T03:18:00.208Z,4.47
2022-09-22T03:20:27.533Z,3.93
2022-09-22T03:22:54.790Z,3.73
2022-09-22T03:25:22.054Z,3.90
2022-09-22T03:27:49.390Z,3.07
2022-09-22T03:30:16.833Z,3.30
2022-09-22T03:32:44.333Z,3.93
2022-09-22T03:35:13.095Z,4.17
2022-09-22T03:37:40.385Z,4.27
2022-09-22T03:40:08.368Z,3.30
2022-09-22T03:42:35.987Z,3.50
2022-09-22T03:45:04.395Z,3.53
2022-09-22T03:47:32.318Z,3.40
2022-09-22T03:49:59.548Z,3.60
2022-09-22T03:52:28.150Z,3.50
2022-09-22T03:54:55.587Z,4.07
2022-09-22T03:57:22.975Z,3.53
2022-09-22T03:59:50.515Z,3.80
2022-09-22T04:02:18.452Z,3.43
2022-09-22T04:04:45.979Z,4.10
2022-09-22T04:07:13.198Z,3.87
2022-09-22T04:09:42.031Z,4.07
2022-09-22T04:12:09.805Z,4.27
2022-09-22T04:14:37.162Z,3.83
2022-09-22T04:17:05.239Z,3.63
2022-09-22T04:19:35.589Z,4.30
2022-09-22T04:22:03.252Z,3.60
2022-09-22T04:24:30.777Z,4.43
2022-09-22T04:27:19.122Z,3.90
2022-09-22T04:29:46.645Z,3.70
2022-09-22T04:32:14.522Z,3.87
2022-09-22T04:34:42.882Z,4.00
2022-09-22T04:37:10.526Z,3.73
2022-09-22T04:39:38.106Z,3.87
2022-09-22T04:42:09.061Z,4.07
2022-09-22T04:44:36.462Z,4.07
2022-09-22T04:47:04.393Z,3.33
2022-09-22T04:49:31.619Z,3.57
2022-09-22T04:51:59.182Z,3.57
2022-09-22T04:54:26.475Z,3.87
2022-09-22T04:56:55.642Z,3.47
2022-09-22T04:59:24.345Z,3.33
2022-09-22T05:01:51.573Z,3.77
2022-09-22T05:04:18.880Z,3.60
2022-09-22T05:06:46.997Z,3.33
2022-09-22T05:09:14.666Z,3.40
2022-09-22T05:11:41.903Z,3.30
2022-09-22T05:14:09.175Z,3.70
2022-09-22T05:16:37.881Z,4.20
2022-09-22T05:19:05.226Z,4.20
2022-09-22T05:21:32.529Z,3.90
2022-09-22T05:24:00.846Z,4.33
2022-09-22T05:26:28.328Z,4.17
2022-09-22T05:28:56.101Z,4.10
2022-09-22T05:31:23.814Z,5.27
2022-09-22T05:33:52.787Z,5.23
2022-09-22T05:36:20.376Z,5.50
2022-09-22T05:38:47.752Z,5.00
2022-09-22T05:41:15.060Z,5.10
2022-09-22T05:43:42.370Z,5.40
2022-09-22T05:46:09.764Z,6.27
2022-09-22T05:48:37.076Z,6.20
2022-09-22T05:51:05.718Z,4.13
2022-09-22T05:53:33.017Z,4.30
2022-09-22T05:56:00.765Z,4.43
2022-09-22T05:58:28.105Z,3.77
2022-09-22T06:00:58.097Z,3.70
2022-09-22T06:03:25.863Z,3.80
2022-09-22T06:05:56.271Z,3.77
2022-09-22T06:08:24.956Z,3.30
2022-09-22T06:10:52.772Z,4.37
2022-09-22T06:13:20.095Z,3.80
2022-09-22T06:15:50.221Z,4.83
2022-09-22T06:18:23.480Z,9.47
2022-09-22T06:20:52.520Z,5.27
2022-09-22T06:23:19.849Z,5.57
2022-09-22T06:25:48.570Z,4.83
2022-09-22T06:28:16.517Z,3.83
2022-09-22T06:30:43.836Z,4.20
2022-09-22T06:33:11.818Z,4.33
2022-09-22T06:35:42.923Z,4.80
2022-09-22T06:38:15.087Z,4.20
2022-09-22T06:40:43.473Z,3.83
2022-09-22T06:43:20.413Z,4.13
2022-09-22T06:45:47.733Z,4.23
2022-09-22T06:48:15.160Z,5.27
2022-09-22T06:50:48.553Z,8.80
2022-09-22T06:53:16.189Z,6.37
2022-09-22T06:55:43.973Z,5.10
2022-09-22T06:58:13.917Z,4.20
2022-09-22T07:00:43.548Z,3.43
2022-09-22T07:03:20.962Z,3.80
2022-09-22T07:05:56.539Z,4.43
2022-09-22T07:08:25.382Z,3.33
2022-09-22T07:10:55.039Z,3.30
2022-09-22T07:13:24.131Z,3.77
2022-09-22T07:15:51.719Z,3.60
2022-09-22T07:18:18.976Z,4.33
2022-09-22T07:20:46.250Z,3.90
2022-09-22T07:23:18.283Z,3.73
2022-09-22T07:25:56.337Z,4.30
2022-09-22T07:28:28.359Z,3.90
2022-09-22T07:30:59.018Z,3.60
2022-09-22T07:33:26.935Z,3.43
2022-09-22T07:36:02.948Z,3.47
2022-09-22T07:38:33.625Z,3.73
2022-09-22T07:41:01.434Z,3.67
2022-09-22T07:43:30.524Z,10.77
2022-09-22T07:45:58.175Z,4.20
2022-09-22T07:48:36.390Z,4.23
2022-09-22T07:51:05.702Z,4.07
2022-09-22T07:53:33.553Z,3.77
2022-09-22T07:56:06.302Z,3.93
2022-09-22T07:58:35.048Z,3.20
2022-09-22T08:01:07.997Z,3.40
2022-09-22T08:03:43.776Z,3.20
2022-09-22T08:06:12.720Z,3.13
2022-09-22T08:08:42.584Z,2.57
2022-09-22T08:11:13.286Z,3.10
2022-09-22T08:13:44.238Z,2.97
2022-09-22T08:16:12.118Z,2.20
2022-09-22T08:18:42.127Z,2.47
2022-09-22T08:21:09.511Z,1.80
2022-09-22T08:23:39.934Z,1.97
2022-09-22T08:26:11.749Z,1.87
2022-09-22T08:28:39.019Z,2.07
2022-09-22T08:31:13.211Z,2.10
2022-09-22T08:33:40.940Z,1.93
2022-09-22T08:36:09.425Z,1.77
2022-09-22T08:38:37.931Z,1.87
2022-09-22T08:41:21.538Z,1.83
2022-09-22T08:43:55.315Z,1.90
2022-09-22T08:46:31.662Z,2.17
2022-09-22T08:49:27.411Z,1.87
2022-09-22T08:52:05.411Z,1.77
2022-09-22T08:54:33.223Z,3.13
2022-09-22T08:57:32.724Z,2.13
2022-09-22T09:00:06.389Z,1.70
2022-09-22T09:02:51.811Z,1.57
2022-09-22T09:06:07.422Z,1.63
2022-09-22T09:09:23.394Z,2.83
2022-09-22T09:12:11.290Z,2.67
2022-09-22T09:15:09.662Z,2.03
2022-09-22T09:17:45.973Z,1.80
2022-09-22T09:20:18.624Z,2.05
2022-09-22T09:22:55.675Z,2.10
2022-09-22T09:25:36.813Z,1.75
2022-09-22T09:28:13.396Z,2.17
2022-09-22T09:30:47.470Z,1.88
2022-09-22T09:33:30.014Z,2.13
2022-09-22T09:35:58.676Z,1.70
2022-09-22T09:38:35.453Z,2.20
2022-09-22T09:41:14.643Z,1.70
2022-09-22T09:43:45.581Z,2.20
2022-09-22T09:46:29.849Z,2.08
2022-09-22T09:49:14.436Z,1.65
2022-09-22T09:51:46.639Z,2.55
2022-09-22T09:54:18.071Z,1.80
2022-09-22T09:57:10.806Z,1.42
2022-09-22T09:59:59.374Z,1.90
2022-09-22T10:02:31.730Z,1.95
2022-09-22T10:05:04.568Z,1.67
2022-09-22T10:07:44.132Z,1.77
2022-09-22T10:10:33.978Z,2.00
2022-09-22T10:13:26.369Z,2.33
2022-09-22T10:16:30.743Z,6.18
2022-09-22T10:19:22.818Z,2.60
2022-09-22T10:21:51.749Z,2.10
2022-09-22T10:24:31.871Z,1.83
2022-09-22T10:27:02.430Z,1.80
2022-09-22T10:29:32.832Z,2.17
2022-09-22T10:32:05.460Z,1.70
2022-09-22T10:34:36.653Z,1.50
2022-09-22T10:37:10.535Z,1.63
2022-09-22T10:39:46.042Z,2.00
2022-09-22T10:42:33.475Z,1.67
2022-09-22T10:45:12.854Z,1.53
2022-09-22T10:47:56.564Z,1.87
2022-09-22T10:50:59.254Z,1.57
2022-09-22T10:54:08.827Z,2.30
2022-09-22T10:56:42.824Z,1.60
2022-09-22T10:59:44.926Z,1.93
2022-09-22T11:02:59.940Z,1.47
2022-09-22T11:06:06.354Z,1.60
2022-09-22T11:09:16.215Z,2.13
2022-09-22T11:12:14.975Z,1.70
2022-09-22T11:15:13.804Z,1.83
2022-09-22T11:18:24.985Z,1.43
2022-09-22T11:21:06.210Z,1.77
2022-09-22T11:24:08.410Z,1.50
2022-09-22T11:26:48.999Z,1.80
2022-09-22T11:30:02.389Z,1.40
2022-09-22T11:32:57.852Z,1.57
2022-09-22T11:35:56.953Z,1.53
2022-09-22T11:39:07.562Z,1.93
2022-09-22T11:41:43.766Z,1.60
2022-09-22T11:44:43.377Z,2.37
2022-09-22T11:47:37.565Z,1.40
2022-09-22T11:50:39.630Z,1.47
2022-09-22T11:53:28.969Z,1.53
2022-09-22T11:56:29.082Z,1.23
2022-09-22T11:59:05.188Z,2.00
2022-09-22T12:01:39.050Z,1.70
2022-09-22T12:04:21.325Z,1.73
2022-09-22T12:06:56.000Z,1.50
2022-09-22T12:09:36.891Z,1.70
2022-09-22T12:12:18.346Z,1.10
2022-09-22T12:14:56.657Z,1.10
2022-09-22T12:17:36.135Z,1.30
2022-09-22T12:20:22.104Z,1.03
2022-09-22T12:23:18.001Z,1.30
2022-09-22T12:25:56.834Z,1.33
2022-09-22T12:28:28.713Z,1.40
2022-09-22T12:31:05.554Z,1.33
2022-09-22T12:33:37.386Z,1.30
2022-09-22T12:36:06.931Z,1.37
2022-09-22T12:38:35.041Z,1.10
2022-09-22T12:41:04.370Z,2.03
2022-09-22T12:43:38.059Z,1.90
2022-09-22T12:46:24.077Z,1.93
2022-09-22T12:48:52.209Z,1.77
2022-09-22T12:51:33.765Z,2.00
2022-09-22T12:54:47.196Z,1.43
2022-09-22T12:57:28.829Z,1.30
2022-09-22T13:00:23.931Z,1.70
2022-09-22T13:02:52.895Z,1.30
2022-09-22T13:05:35.938Z,1.23
2022-09-22T13:08:04.200Z,1.30
2022-09-22T13:11:00.521Z,1.47
2022-09-22T13:13:44.697Z,1.63
2022-09-22T13:16:34.909Z,0.90
2022-09-22T13:19:04.275Z,1.40
2022-09-22T13:21:36.902Z,1.40
2022-09-22T13:24:18.638Z,1.83
2022-09-22T13:26:46.023Z,1.97
2022-09-22T13:29:16.327Z,1.30
2022-09-22T13:31:47.713Z,1.50
2022-09-22T13:34:27.839Z,1.37
2022-09-22T13:37:00.526Z,1.27
2022-09-22T13:39:33.106Z,1.60
2022-09-22T13:42:08.404Z,1.07
2022-09-22T13:44:42.461Z,1.37
2022-09-22T13:47:19.528Z,1.27
2022-09-22T13:49:51.780Z,1.37
2022-09-22T13:52:24.789Z,1.20
2022-09-22T13:54:57.478Z,1.27
2022-09-22T13:57:30.350Z,1.37
2022-09-22T14:00:05.089Z,1.10
2022-09-22T14:02:34.587Z,1.23
2022-09-22T14:05:07.991Z,1.37
2022-09-22T14:07:49.464Z,1.60
2022-09-22T14:10:27.891Z,1.23
2022-09-22T14:12:55.959Z,1.60
2022-09-22T14:15:49.902Z,1.63
2022-09-22T14:18:28.107Z,1.70
2022-09-22T14:20:59.647Z,1.60
2022-09-22T14:23:53.828Z,1.60
2022-09-22T14:26:33.621Z,1.50
2022-09-22T14:29:15.303Z,1.73
2022-09-22T14:31:54.135Z,1.50
2022-09-22T14:34:34.471Z,1.30
2022-09-22T14:37:20.656Z,1.50
2022-09-22T14:40:03.442Z,1.50
2022-09-22T14:42:34.161Z,1.80
2022-09-22T14:45:21.161Z,1.40
2022-09-22T14:48:15.826Z,1.57
2022-09-22T14:53:49.501Z,2.40
2022-09-22T14:56:30.099Z,1.80
2022-09-22T14:59:25.638Z,1.70
2022-09-22T15:02:13.692Z,1.20
2022-09-22T15:04:48.669Z,1.33
2022-09-22T15:07:26.692Z,1.53
2022-09-22T15:09:59.476Z,1.13
2022-09-22T15:12:40.434Z,1.90
2022-09-22T15:15:21.594Z,1.03
2022-09-22T15:18:09.059Z,1.03
2022-09-22T15:20:42.813Z,1.40
2022-09-22T15:23:23.080Z,1.70
2022-09-22T15:25:52.161Z,1.80
2022-09-22T15:28:23.764Z,1.60
2022-09-22T15:30:52.737Z,1.40
2022-09-22T15:33:21.560Z,2.97
2022-09-22T15:35:55.295Z,1.70
2022-09-22T15:38:27.848Z,1.70
2022-09-22T15:40:55.509Z,1.40
2022-09-22T15:43:24.390Z,1.10
2022-09-22T15:45:58.249Z,1.37
2022-09-22T15:48:31.116Z,1.50
2022-09-22T15:51:04.731Z,1.27
2022-09-22T15:53:34.578Z,1.47
2022-09-22T15:56:07.045Z,1.53
2022-09-22T15:58:39.097Z,1.30
2022-09-22T16:01:07.919Z,1.30
2022-09-22T16:03:41.282Z,1.10
2022-09-22T16:06:14.090Z,1.30
2022-09-22T16:08:48.152Z,1.40
2022-09-22T16:11:18.734Z,1.20
2022-09-22T16:13:46.159Z,1.47
2022-09-22T16:16:13.588Z,2.17
2022-09-22T16:18:41.907Z,1.50
2022-09-22T16:21:29.365Z,1.50
2022-09-22T16:24:11.201Z,1.80
2022-09-22T16:26:40.209Z,1.57
2022-09-22T16:29:08.567Z,1.80
2022-09-22T16:31:37.400Z,1.20
2022-09-22T16:34:06.711Z,1.23
2022-09-22T16:36:36.421Z,1.37
2022-09-22T16:39:05.726Z,1.67
2022-09-22T16:41:35.340Z,2.07
2022-09-22T16:44:04.537Z,1.90
2022-09-22T16:46:35.049Z,2.40
2022-09-22T16:49:05.271Z,1.73
2022-09-22T16:51:35.497Z,3.67
2022-09-22T16:54:07.433Z,2.10
2022-09-22T16:56:37.858Z,2.43
2022-09-22T16:59:06.330Z,1.90
2022-09-22T17:01:37.697Z,1.87
2022-09-22T17:04:07.265Z,1.90
2022-09-22T17:06:38.205Z,2.97
2022-09-22T17:09:09.290Z,2.43
2022-09-22T17:11:40.178Z,5.73
2022-09-22T17:14:12.504Z,2.90
2022-09-22T17:16:44.937Z,2.83
2022-09-22T17:19:18.477Z,1.60
2022-09-22T17:21:47.725Z,2.27
2022-09-22T17:24:16.913Z,2.27
2022-09-22T17:26:47.842Z,2.53
2022-09-22T17:29:17.034Z,2.13
2022-09-22T17:31:48.188Z,2.20
2022-09-22T17:34:15.810Z,2.20
2022-09-22T17:36:43.476Z,4.50
2022-09-22T17:39:11.743Z,2.97
2022-09-22T17:41:47.002Z,2.97
2022-09-22T17:44:18.194Z,2.10
2022-09-22T17:47:04.271Z,2.40
2022-09-22T17:49:50.167Z,2.33
2022-09-22T17:52:29.930Z,2.70
2022-09-22T17:55:07.446Z,2.30
2022-09-22T17:57:38.616Z,2.70
2022-09-22T18:00:09.854Z,2.90
2022-09-22T18:02:37.339Z,2.80
2022-09-22T18:05:06.778Z,2.80
2022-09-22T18:07:40.147Z,2.97
2022-09-22T18:10:10.925Z,2.67
2022-09-22T18:12:41.283Z,2.67
2022-09-22T18:15:13.170Z,2.60
2022-09-22T18:17:42.844Z,2.33
2022-09-22T18:20:12.626Z,2.40
2022-09-22T18:22:41.422Z,2.77
2022-09-22T18:25:11.353Z,2.40
2022-09-22T18:27:40.407Z,4.17
2022-09-22T18:30:12.190Z,3.00
2022-09-22T18:32:42.748Z,2.67
2022-09-22T18:35:12.763Z,2.90
2022-09-22T18:37:40.498Z,4.40
2022-09-22T18:40:10.134Z,3.20
2022-09-22T18:42:38.903Z,3.80
2022-09-22T18:45:07.799Z,3.50
2022-09-22T18:47:39.630Z,3.67
2022-09-22T18:50:08.253Z,10.67
2022-09-22T18:52:36.743Z,4.80
2022-09-22T18:55:05.244Z,3.70
2022-09-22T18:57:32.529Z,3.40
2022-09-22T19:00:01.643Z,3.67
2022-09-22T19:02:30.238Z,3.50
2022-09-22T19:04:57.621Z,3.07
2022-09-22T19:07:43.605Z,4.10
2022-09-22T19:10:14.721Z,3.53
2022-09-22T19:12:42.709Z,3.63
2022-09-22T19:15:18.145Z,4.37
2022-09-22T19:17:48.437Z,4.23
2022-09-22T19:20:20.390Z,3.97
2022-09-22T19:22:49.268Z,4.10
2022-09-22T19:25:17.372Z,4.57
2022-09-22T19:27:44.747Z,4.23
2022-09-22T19:30:14.385Z,4.57
2022-09-22T19:32:41.901Z,4.33
2022-09-22T19:35:09.854Z,4.13
2022-09-22T19:37:38.107Z,4.07
2022-09-22T19:40:08.515Z,4.20
2022-09-22T19:42:40.064Z,4.23
2022-09-22T19:45:08.513Z,3.93
2022-09-22T19:47:37.740Z,4.03
2022-09-22T19:50:07.952Z,4.07
2022-09-22T19:52:35.980Z,3.93
2022-09-22T19:55:03.916Z,4.27
2022-09-22T19:57:32.014Z,3.90
2022-09-22T19:59:59.351Z,4.13
2022-09-22T20:02:26.681Z,4.40
2022-09-22T20:04:55.959Z,4.13
2022-09-22T20:07:27.722Z,4.00
2022-09-22T20:09:57.668Z,4.10
2022-09-22T20:12:24.944Z,4.20
2022-09-22T20:14:53.306Z,4.70
2022-09-22T20:17:20.598Z,4.07
2022-09-22T20:19:47.859Z,4.17
2022-09-22T20:22:25.234Z,4.30
2022-09-22T20:24:57.168Z,4.30
2022-09-22T20:27:27.119Z,4.37
2022-09-22T20:29:57.428Z,4.23
2022-09-22T20:32:27.126Z,4.53
2022-09-22T20:34:55.765Z,4.00
2022-09-22T20:37:25.003Z,3.63
2022-09-22T20:39:52.974Z,4.10
2022-09-22T20:42:20.878Z,3.63
2022-09-22T20:44:49.163Z,5.57
2022-09-22T20:47:18.956Z,4.27
2022-09-22T20:49:51.619Z,4.23
2022-09-22T20:52:21.071Z,4.43
2022-09-22T20:54:50.093Z,4.03
2022-09-22T20:57:17.896Z,4.80
2022-09-22T20:59:45.786Z,3.93
2022-09-22T21:02:15.249Z,3.80
2022-09-22T21:04:42.899Z,4.40
2022-09-22T21:07:11.655Z,3.77
2022-09-22T21:09:58.246Z,3.70
2022-09-22T21:12:31.280Z,4.20
2022-09-22T21:14:59.503Z,3.97
2022-09-22T21:17:32.925Z,3.63
2022-09-22T21:20:00.607Z,4.07
2022-09-22T21:22:28.299Z,3.77
2022-09-22T21:24:56.434Z,3.67
2022-09-22T21:27:25.017Z,3.80
2022-09-22T21:29:53.971Z,3.23
2022-09-22T21:32:21.481Z,3.13
2022-09-22T21:34:49.030Z,3.30
2022-09-22T21:37:16.622Z,3.23
2022-09-22T21:39:44.155Z,3.87
2022-09-22T21:42:11.675Z,3.67
2022-09-22T21:44:39.191Z,3.50
2022-09-22T21:47:08.142Z,3.80
2022-09-22T21:49:35.486Z,3.20
2022-09-22T21:52:03.297Z,3.10
2022-09-22T21:54:31.102Z,3.20
2022-09-22T21:56:58.438Z,3.00
2022-09-22T21:59:25.746Z,2.80
2022-09-22T22:01:53.081Z,3.27
2022-09-22T22:04:21.818Z,2.80
2022-09-22T22:06:49.146Z,3.73
2022-09-22T22:09:19.069Z,2.63
2022-09-22T22:11:49.593Z,2.83
2022-09-22T22:14:22.318Z,2.90
2022-09-22T22:16:52.182Z,3.40
2022-09-22T22:19:23.098Z,3.40
2022-09-22T22:21:51.657Z,2.93
2022-09-22T22:24:30.452Z,3.13
2022-09-22T22:27:01.403Z,2.97
2022-09-22T22:29:34.725Z,3.07
2022-09-22T22:32:05.023Z,3.00
2022-09-22T22:34:33.738Z,3.33
2022-09-22T22:37:01.168Z,3.23
2022-09-22T22:39:29.892Z,2.87
2022-09-22T22:41:57.276Z,3.00
2022-09-22T22:44:24.646Z,2.90
2022-09-22T22:46:51.923Z,3.00
2022-09-22T22:49:19.669Z,3.30
2022-09-22T22:51:49.409Z,2.93
2022-09-22T22:54:16.901Z,2.77
2022-09-22T22:56:46.814Z,3.13
2022-09-22T22:59:18.139Z,2.63
2022-09-22T23:01:45.542Z,2.90
2022-09-22T23:04:13.107Z,2.50
2022-09-22T23:06:44.508Z,2.70
2022-09-22T23:09:16.779Z,3.13
2022-09-22T23:11:45.807Z,3.03
2022-09-22T23:14:15.897Z,3.23
2022-09-22T23:16:46.741Z,2.43
2022-09-22T23:19:17.300Z,3.23
2022-09-22T23:21:45.395Z,2.83
2022-09-22T23:24:16.923Z,3.03
2022-09-22T23:26:45.024Z,2.70
2022-09-22T23:29:12.585Z,2.87
2022-09-22T23:31:39.820Z,2.67
2022-09-22T23:34:07.066Z,3.17
2022-09-22T23:36:34.561Z,2.70
2022-09-22T23:39:04.368Z,2.70
2022-09-22T23:41:35.724Z,2.40
2022-09-22T23:44:03.882Z,2.90
2022-09-22T23:46:31.786Z,3.03
2022-09-22T23:49:00.108Z,2.40
2022-09-22T23:51:28.355Z,2.37
2022-09-22T23:53:56.320Z,2.60
2022-09-22T23:56:24.703Z,3.43
2022-09-22T23:58:53.554Z,2.70
